Time;durP1;ratioP1;P1;durP2;ratioP2;P2;SDS_P1;SDS_P2;PMS_P1;PMS_P2;Temp;Humidity;BMP_temperature;BMP_pressure;BME280_temperature;BME280_humidity;BME280_pressure;Samples;Min_cycle;Max_cycle;Signal;HPM_P1;HPM_P2
2021/06/26 00:01:18;;;;;;;8.10;6.38;;;;;;;12.62;79.75;101853.50;4943143;28;20125;-78
2021/06/26 00:03:43;;;;;;;10.45;6.25;;;;;;;12.59;80.11;101856.41;4941313;28;20500;-78
2021/06/26 00:06:09;;;;;;;7.90;6.10;;;;;;;12.57;80.78;101860.97;4953113;28;20019;-80
2021/06/26 00:08:35;;;;;;;9.13;6.10;;;;;;;12.56;81.73;101858.47;4945380;28;20035;-81
2021/06/26 00:11:00;;;;;;;9.57;6.60;;;;;;;12.52;80.44;101859.69;4966862;28;20043;-79
2021/06/26 00:13:26;;;;;;;12.00;6.75;;;;;;;12.52;80.73;101864.94;4914560;29;20042;-79
2021/06/26 00:15:52;;;;;;;7.40;6.70;;;;;;;12.46;80.93;101861.88;4958467;28;20038;-79
2021/06/26 00:18:18;;;;;;;13.70;7.40;;;;;;;12.48;80.67;101868.81;4960105;28;20174;-81
2021/06/26 00:20:44;;;;;;;14.93;7.90;;;;;;;12.41;81.47;101861.47;4949144;28;20053;-79
2021/06/26 00:23:10;;;;;;;9.25;7.53;;;;;;;12.41;81.54;101866.72;4952631;28;20038;-80
2021/06/26 00:25:36;;;;;;;9.38;8.05;;;;;;;12.31;81.60;101846.56;4938116;29;20102;-80
2021/06/26 00:28:03;;;;;;;10.73;8.13;;;;;;;12.26;82.34;101839.06;4932234;28;20130;-80
2021/06/26 00:30:28;;;;;;;10.50;8.23;;;;;;;12.35;82.85;101861.97;4973488;28;20105;-78
2021/06/26 00:32:55;;;;;;;9.57;7.65;;;;;;;12.35;83.43;101874.28;4951980;28;20062;-79
2021/06/26 00:35:21;;;;;;;11.38;8.77;;;;;;;12.34;83.01;101865.56;4948297;28;20074;-80
2021/06/26 00:37:46;;;;;;;11.13;8.80;;;;;;;12.23;83.76;101863.00;4953104;28;20378;-79
2021/06/26 00:40:12;;;;;;;10.75;8.85;;;;;;;12.25;83.78;101861.91;4923234;28;20105;-81
2021/06/26 00:42:40;;;;;;;11.45;9.15;;;;;;;12.20;84.30;101873.78;4942174;28;20039;-80
2021/06/26 00:45:08;;;;;;;10.32;8.55;;;;;;;12.12;84.29;101868.34;4957613;28;20102;-81
2021/06/26 00:47:34;;;;;;;12.63;8.55;;;;;;;12.11;84.69;101872.78;4956745;28;20034;-80
2021/06/26 00:49:59;;;;;;;9.65;8.65;;;;;;;12.05;84.75;101863.63;4938538;28;20511;-81
2021/06/26 00:52:25;;;;;;;16.13;9.85;;;;;;;12.06;84.87;101874.97;4939642;28;20034;-80
2021/06/26 00:54:51;;;;;;;12.57;8.65;;;;;;;12.05;84.58;101868.88;4956830;28;20142;-79
2021/06/26 00:57:19;;;;;;;10.50;8.80;;;;;;;11.97;85.07;101870.47;4954025;28;20030;-80
2021/06/26 00:59:45;;;;;;;12.00;8.65;;;;;;;11.91;85.57;101876.25;4920329;29;20043;-80
2021/06/26 01:02:11;;;;;;;12.38;9.02;;;;;;;11.89;86.17;101860.56;4953431;28;20047;-80
2021/06/26 01:04:36;;;;;;;10.70;9.07;;;;;;;11.91;86.18;101856.03;4956079;28;20062;-79
2021/06/26 01:07:03;;;;;;;12.73;9.23;;;;;;;11.96;86.30;101851.22;4939516;28;20093;-78
2021/06/26 01:09:28;;;;;;;14.45;9.07;;;;;;;11.87;86.41;101850.16;4924497;28;20384;-81
2021/06/26 01:11:58;;;;;;;9.40;8.45;;;;;;;11.91;86.60;101856.03;4939365;28;20038;-79
2021/06/26 01:14:30;;;;;;;12.25;9.10;;;;;;;11.99;86.83;101858.84;4937959;28;20117;-80
2021/06/26 01:17:02;;;;;;;12.75;9.05;;;;;;;11.94;86.65;101868.94;4973665;28;20073;-80
2021/06/26 01:19:28;;;;;;;11.35;8.75;;;;;;;11.82;86.57;101862.84;4923911;28;20094;-79
2021/06/26 01:21:54;;;;;;;11.65;8.63;;;;;;;11.86;87.23;101866.06;4940098;28;20539;-78
2021/06/26 01:24:20;;;;;;;13.52;9.45;;;;;;;11.85;87.36;101853.88;4922497;28;20807;-78
2021/06/26 01:26:46;;;;;;;12.45;10.05;;;;;;;11.81;87.47;101855.94;4941270;28;20071;-80
2021/06/26 01:29:12;;;;;;;11.18;9.98;;;;;;;11.86;87.01;101869.50;4937431;28;20066;-78
2021/06/26 01:31:39;;;;;;;13.45;10.20;;;;;;;11.86;87.41;101864.25;4949269;28;20030;-79
2021/06/26 01:34:05;;;;;;;12.05;10.45;;;;;;;11.78;87.67;101857.97;4938337;28;20038;-80
2021/06/26 01:36:30;;;;;;;12.23;9.90;;;;;;;11.76;87.69;101847.59;4938485;28;20046;-80
2021/06/26 01:38:57;;;;;;;12.45;9.98;;;;;;;11.88;87.81;101864.13;4956413;28;20122;-79
2021/06/26 01:41:24;;;;;;;16.10;12.07;;;;;;;11.91;87.44;101863.09;4954102;28;20038;-79
2021/06/26 01:43:50;;;;;;;14.88;13.13;;;;;;;11.88;87.67;101857.09;4920393;28;20481;-79
2021/06/26 01:46:16;;;;;;;15.55;13.35;;;;;;;11.87;88.01;101855.41;4958637;28;20034;-80
2021/06/26 01:48:42;;;;;;;16.83;12.85;;;;;;;11.88;88.11;101862.38;4938758;28;20110;-80
2021/06/26 01:51:07;;;;;;;13.60;11.25;;;;;;;11.82;88.65;101849.69;4953741;28;20031;-78
2021/06/26 01:53:33;;;;;;;12.75;11.20;;;;;;;11.81;88.95;101855.94;4921423;28;20042;-80
2021/06/26 01:55:58;;;;;;;14.93;11.27;;;;;;;11.71;89.32;101848.94;4939013;28;20045;-79
2021/06/26 01:58:24;;;;;;;16.80;12.60;;;;;;;11.71;89.71;101854.19;4938163;28;20031;-79
2021/06/26 02:00:50;;;;;;;17.67;13.10;;;;;;;11.68;89.91;101852.66;4927066;28;20165;-80
2021/06/26 02:03:16;;;;;;;14.18;12.30;;;;;;;11.63;90.35;101850.41;4943323;28;20556;-78
2021/06/26 02:05:42;;;;;;;14.88;11.95;;;;;;;11.63;89.81;101852.19;4938714;28;20122;-79
2021/06/26 02:08:08;;;;;;;12.88;11.48;;;;;;;11.60;89.67;101855.06;4972236;28;20065;-80
2021/06/26 02:10:34;;;;;;;13.85;11.98;;;;;;;11.57;89.41;101850.09;4953573;28;20666;-80
2021/06/26 02:13:00;;;;;;;15.95;11.48;;;;;;;11.59;89.87;101851.63;4935452;28;20574;-79
2021/06/26 02:15:26;;;;;;;14.35;10.88;;;;;;;11.60;89.54;101858.56;4971661;28;20038;-81
2021/06/26 02:17:51;;;;;;;13.20;11.13;;;;;;;11.62;89.69;101853.13;4939721;28;20134;-79
2021/06/26 02:20:17;;;;;;;11.68;9.98;;;;;;;11.51;89.67;101838.28;4954337;28;20535;-80
2021/06/26 02:22:43;;;;;;;13.23;10.00;;;;;;;11.68;89.48;101855.28;4954087;28;20037;-79
2021/06/26 02:25:09;;;;;;;12.25;9.35;;;;;;;11.59;89.10;101843.72;4923138;28;20117;-80
2021/06/26 02:27:35;;;;;;;12.55;10.65;;;;;;;11.79;90.10;101872.78;4935721;28;20035;-79
2021/06/26 02:30:03;;;;;;;11.75;9.90;;;;;;;11.77;89.85;101865.03;4944150;28;20096;-80
2021/06/26 02:32:28;;;;;;;15.43;11.63;;;;;;;11.68;91.40;101868.44;4925162;28;20038;-79
2021/06/26 02:34:54;;;;;;;12.20;10.93;;;;;;;11.59;92.02;101863.94;4955137;28;20085;-78
2021/06/26 02:37:21;;;;;;;14.75;10.15;;;;;;;11.51;91.90;101872.44;4979126;28;20042;-79
2021/06/26 02:39:46;;;;;;;12.25;10.35;;;;;;;11.44;91.78;101868.63;4954897;28;20378;-80
2021/06/26 02:42:12;;;;;;;12.90;10.48;;;;;;;11.42;91.74;101868.75;4936144;28;20053;-78
2021/06/26 02:44:37;;;;;;;12.40;9.90;;;;;;;11.39;91.85;101862.91;4937700;28;20062;-82
2021/06/26 02:47:03;;;;;;;14.65;9.65;;;;;;;11.40;91.69;101865.41;4955298;28;20042;-80
2021/06/26 02:49:29;;;;;;;10.80;9.65;;;;;;;11.43;91.38;101862.56;4939850;28;20043;-79
2021/06/26 02:51:54;;;;;;;11.40;9.65;;;;;;;11.37;91.10;101855.16;4954177;28;20062;-79
2021/06/26 02:54:20;;;;;;;11.55;10.35;;;;;;;11.44;91.16;101877.34;4929867;28;20829;-79
2021/06/26 02:56:46;;;;;;;10.85;9.75;;;;;;;11.45;90.75;101875.53;4938494;28;20042;-79
2021/06/26 02:59:11;;;;;;;10.63;9.52;;;;;;;11.41;90.71;101861.00;4919734;29;20043;-81
2021/06/26 03:01:37;;;;;;;14.75;10.35;;;;;;;11.45;90.78;101871.13;4940336;29;20039;-79
2021/06/26 03:04:04;;;;;;;13.93;11.07;;;;;;;11.49;91.23;101869.94;4937661;28;20030;-81
2021/06/26 03:06:29;;;;;;;12.00;10.20;;;;;;;11.45;91.33;101857.16;4937769;28;20444;-81
2021/06/26 03:08:55;;;;;;;12.32;10.80;;;;;;;11.60;91.95;101873.47;4921293;28;20043;-82
2021/06/26 03:11:21;;;;;;;15.45;11.15;;;;;;;11.67;92.27;101878.09;4936652;28;20038;-80
2021/06/26 03:13:47;;;;;;;12.63;11.43;;;;;;;11.68;92.63;101861.38;4937703;28;20038;-81
2021/06/26 03:16:12;;;;;;;15.48;13.27;;;;;;;11.81;94.55;101876.13;4954549;28;20569;-79
2021/06/26 03:18:42;;;;;;;13.77;11.70;;;;;;;11.83;94.22;101869.78;4938777;28;20041;-80
2021/06/26 03:21:08;;;;;;;14.32;12.40;;;;;;;11.97;93.99;101880.97;4938690;28;20046;-81
2021/06/26 03:23:34;;;;;;;14.50;11.48;;;;;;;12.04;93.62;101884.78;4919317;29;20440;-81
2021/06/26 03:25:59;;;;;;;15.25;10.77;;;;;;;12.10;93.49;101883.44;4970719;28;20595;-81
2021/06/26 03:28:25;;;;;;;14.77;10.77;;;;;;;12.15;93.62;101884.72;4934658;28;20093;-82
2021/06/26 03:30:50;;;;;;;14.40;11.60;;;;;;;12.15;93.77;101883.84;4937839;28;20117;-81
2021/06/26 03:33:16;;;;;;;13.35;11.63;;;;;;;12.24;93.84;101883.06;4938081;28;20575;-81
2021/06/26 03:35:42;;;;;;;14.90;11.45;;;;;;;12.25;94.06;101890.84;4955149;28;20074;-81
2021/06/26 03:38:07;;;;;;;16.52;11.90;;;;;;;12.32;93.87;101882.44;4956690;28;20158;-80
2021/06/26 03:40:33;;;;;;;14.85;12.93;;;;;;;12.34;94.07;101883.13;4956782;28;20093;-81
2021/06/26 03:42:58;;;;;;;15.30;12.38;;;;;;;12.40;94.27;101893.97;4935209;28;20075;-82
2021/06/26 03:45:24;;;;;;;12.93;11.63;;;;;;;12.39;93.94;101891.47;4961494;28;20463;-80
2021/06/26 03:47:49;;;;;;;13.38;11.80;;;;;;;12.43;93.86;101896.38;4960203;28;20598;-81
2021/06/26 03:50:15;;;;;;;13.50;11.90;;;;;;;12.48;93.69;101901.22;4938170;28;20070;-80
2021/06/26 03:52:40;;;;;;;14.77;12.38;;;;;;;12.50;93.56;101903.72;4939067;28;20055;-81
2021/06/26 03:55:07;;;;;;;18.08;13.23;;;;;;;12.49;94.13;101900.28;4923447;28;20074;-80
2021/06/26 03:57:33;;;;;;;14.25;12.07;;;;;;;12.53;93.72;101901.66;4953773;28;20037;-81
2021/06/26 03:59:58;;;;;;;15.23;13.13;;;;;;;12.53;94.00;101900.84;4961178;28;20039;-80
2021/06/26 04:02:24;;;;;;;14.20;12.23;;;;;;;12.60;93.33;101910.72;4957882;28;20047;-81
2021/06/26 04:04:50;;;;;;;14.90;13.30;;;;;;;12.60;93.76;101908.09;4944959;28;20106;-80
2021/06/26 04:07:15;;;;;;;18.52;12.80;;;;;;;12.69;94.11;101916.97;4925917;28;20044;-79
2021/06/26 04:09:41;;;;;;;15.13;12.07;;;;;;;12.76;93.14;101906.75;4941757;28;20416;-80
2021/06/26 04:12:07;;;;;;;13.48;12.07;;;;;;;12.89;92.80;101904.72;4946153;28;20030;-80
2021/06/26 04:14:33;;;;;;;14.13;11.75;;;;;;;13.04;92.00;101906.03;4975786;28;20529;-79
2021/06/26 04:16:58;;;;;;;17.23;11.95;;;;;;;13.15;91.58;101891.91;4923870;28;20046;-82
2021/06/26 04:19:24;;;;;;;12.90;11.52;;;;;;;13.28;90.77;101906.63;4958052;28;20031;-81
2021/06/26 04:21:49;;;;;;;14.23;12.07;;;;;;;13.40;91.25;101903.78;4975229;28;20662;-80
2021/06/26 04:24:15;;;;;;;17.52;12.60;;;;;;;13.37;91.28;101884.75;4941047;28;20413;-81
2021/06/26 04:26:40;;;;;;;17.92;12.48;;;;;;;13.51;91.14;101894.91;4957835;28;20047;-82
2021/06/26 04:29:06;;;;;;;15.05;12.88;;;;;;;13.71;91.11;101916.84;4938572;28;20043;-82
2021/06/26 04:31:32;;;;;;;13.65;12.25;;;;;;;13.77;90.41;101913.66;4945467;28;20582;-81
2021/06/26 04:33:57;;;;;;;13.35;11.95;;;;;;;13.94;89.80;101922.69;4928457;28;20034;-82
2021/06/26 04:36:23;;;;;;;14.50;11.73;;;;;;;14.01;89.42;101922.94;4941638;28;20050;-81
2021/06/26 04:38:48;;;;;;;12.82;11.48;;;;;;;14.05;88.43;101918.22;4963033;28;20125;-81
2021/06/26 04:41:14;;;;;;;14.90;11.73;;;;;;;14.09;88.06;101912.53;4940547;28;20085;-80
2021/06/26 04:43:39;;;;;;;15.93;11.95;;;;;;;13.97;86.80;101908.38;4957681;28;20073;-81
2021/06/26 04:46:09;;;;;;;12.63;11.32;;;;;;;13.98;86.13;101928.50;4941316;28;20039;-80
2021/06/26 04:48:36;;;;;;;10.88;9.77;;;;;;;13.96;85.91;101928.63;4975531;28;20046;-80
2021/06/26 04:51:02;;;;;;;11.88;10.57;;;;;;;13.88;85.92;101920.59;4956891;28;20023;-81
2021/06/26 04:53:27;;;;;;;11.75;9.60;;;;;;;13.95;86.60;101931.41;4942108;28;20031;-81
2021/06/26 04:55:53;;;;;;;11.73;9.93;;;;;;;13.89;86.07;101918.78;4957698;28;20050;-81
2021/06/26 04:58:23;;;;;;;13.85;9.82;;;;;;;13.81;85.94;101917.69;4940546;28;20500;-81
2021/06/26 05:00:51;;;;;;;12.45;9.40;;;;;;;13.79;86.48;101916.16;4937832;28;20115;-79
2021/06/26 05:03:21;;;;;;;12.18;9.70;;;;;;;13.77;86.48;101920.75;4958021;28;20023;-80
2021/06/26 05:05:49;;;;;;;11.63;9.98;;;;;;;13.75;86.10;101920.88;4959124;28;20118;-80
2021/06/26 05:08:15;;;;;;;9.80;8.80;;;;;;;13.92;84.66;101921.13;4941488;28;20190;-78
2021/06/26 05:10:41;;;;;;;9.55;8.55;;;;;;;14.14;84.24;101926.09;4956192;28;20567;-78
2021/06/26 05:13:06;;;;;;;15.40;8.63;;;;;;;14.37;83.33;101926.66;4963522;28;20057;-77
2021/06/26 05:15:32;;;;;;;9.75;8.60;;;;;;;14.59;81.62;101932.56;4925007;28;20112;-80
2021/06/26 05:17:58;;;;;;;9.77;8.10;;;;;;;14.76;80.17;101938.91;4939176;28;20035;-79
2021/06/26 05:20:23;;;;;;;9.00;8.18;;;;;;;14.88;79.19;101929.84;4940360;28;20847;-78
2021/06/26 05:22:49;;;;;;;8.65;7.43;;;;;;;15.13;77.06;101938.06;4956298;28;20026;-80
2021/06/26 05:25:15;;;;;;;11.05;7.78;;;;;;;15.37;76.10;101934.88;4953410;28;20046;-79
2021/06/26 05:27:41;;;;;;;9.40;8.15;;;;;;;15.55;74.62;101941.00;4932053;28;20520;-79
2021/06/26 05:30:07;;;;;;;9.50;7.82;;;;;;;15.64;74.29;101941.09;4976217;28;20058;-79
2021/06/26 05:32:33;;;;;;;8.40;7.60;;;;;;;15.63;74.76;101937.59;4938869;29;20038;-79
2021/06/26 05:34:58;;;;;;;10.07;7.88;;;;;;;15.71;74.43;101944.78;4955805;28;20047;-80
2021/06/26 05:37:24;;;;;;;8.95;7.80;;;;;;;15.85;74.56;101952.22;4939326;28;20153;-78
2021/06/26 05:39:49;;;;;;;9.75;7.68;;;;;;;16.09;73.00;101948.94;4937073;28;20047;-80
2021/06/26 05:42:15;;;;;;;9.73;7.57;;;;;;;16.17;72.66;101952.66;4957946;28;20042;-79
2021/06/26 05:44:41;;;;;;;8.75;7.25;;;;;;;16.22;73.44;101956.50;4934178;28;20154;-81
2021/06/26 05:47:06;;;;;;;8.43;7.13;;;;;;;16.25;73.55;101953.53;4924345;28;20046;-79
2021/06/26 05:49:32;;;;;;;7.63;6.93;;;;;;;16.26;75.38;101957.03;4924127;28;20062;-80
2021/06/26 05:51:58;;;;;;;11.02;7.68;;;;;;;16.25;73.43;101944.75;4922552;28;20502;-80
2021/06/26 05:54:23;;;;;;;8.63;7.13;;;;;;;16.28;74.51;101952.41;4940041;28;20038;-80
2021/06/26 05:56:49;;;;;;;9.02;6.80;;;;;;;16.29;74.67;101962.84;4921652;28;20050;-80
2021/06/26 05:59:14;;;;;;;7.57;5.97;;;;;;;16.31;76.37;101955.56;4940045;28;20089;-82
2021/06/26 06:01:40;;;;;;;6.20;5.60;;;;;;;16.30;79.37;101953.06;4954972;28;20043;-80
2021/06/26 06:04:07;;;;;;;7.03;6.10;;;;;;;16.39;81.04;101953.94;4941696;28;20046;-80
2021/06/26 06:06:33;;;;;;;7.18;6.40;;;;;;;16.35;79.25;101937.56;4956192;28;20035;-80
2021/06/26 06:08:58;;;;;;;6.35;5.38;;;;;;;16.43;80.43;101947.38;4956493;28;20786;-80
2021/06/26 06:11:24;;;;;;;13.00;6.72;;;;;;;16.64;76.62;101952.31;4937613;28;20035;-80
2021/06/26 06:13:49;;;;;;;9.38;6.72;;;;;;;16.72;74.08;101945.22;4953315;28;20123;-80
2021/06/26 06:16:15;;;;;;;9.15;6.63;;;;;;;16.93;72.95;101939.56;4936344;28;20047;-78
2021/06/26 06:18:40;;;;;;;8.65;7.22;;;;;;;17.25;69.55;101945.97;4961705;28;20043;-81
2021/06/26 06:21:06;;;;;;;11.25;6.82;;;;;;;17.55;69.81;101950.84;4956166;28;20039;-81
2021/06/26 06:23:31;;;;;;;8.52;6.47;;;;;;;17.71;69.49;101958.84;4940256;28;20700;-79
2021/06/26 06:25:57;;;;;;;12.45;6.30;;;;;;;17.90;67.22;101961.19;4940905;28;20062;-80
2021/06/26 06:28:22;;;;;;;7.90;5.88;;;;;;;18.10;65.91;101966.16;4924043;28;20102;-80
2021/06/26 06:30:48;;;;;;;11.85;6.03;;;;;;;18.20;64.36;101960.72;4940594;28;20034;-80
2021/06/26 06:33:14;;;;;;;6.90;5.60;;;;;;;18.39;62.71;101970.97;4953081;28;20023;-82
2021/06/26 06:35:39;;;;;;;5.22;4.72;;;;;;;18.41;62.19;101968.97;4940851;28;20045;-80
2021/06/26 06:38:05;;;;;;;7.35;5.50;;;;;;;18.48;64.36;101966.47;4975799;28;20427;-82
2021/06/26 06:40:31;;;;;;;8.00;5.65;;;;;;;18.51;64.10;101971.44;4928746;28;20038;-80
2021/06/26 06:42:56;;;;;;;6.45;5.32;;;;;;;18.54;62.73;101967.63;4973190;28;20049;-82
2021/06/26 06:45:22;;;;;;;8.43;4.72;;;;;;;18.63;64.71;101971.94;4963018;28;20048;-78
2021/06/26 06:47:48;;;;;;;7.47;4.95;;;;;;;18.76;63.22;101976.69;4954521;28;20042;-80
2021/06/26 06:50:13;;;;;;;6.38;4.90;;;;;;;18.83;62.64;101981.19;4940547;28;20031;-80
2021/06/26 06:52:39;;;;;;;4.95;4.45;;;;;;;18.92;62.63;101989.16;4961863;28;20066;-81
2021/06/26 06:55:07;;;;;;;5.60;4.78;;;;;;;18.88;70.90;101988.66;4974079;28;20062;-80
2021/06/26 06:57:32;;;;;;;5.75;4.32;;;;;;;18.85;68.91;101994.31;4925325;28;20042;-79
2021/06/26 06:59:58;;;;;;;6.18;4.10;;;;;;;18.78;66.88;101983.50;4925328;28;20045;-80
2021/06/26 07:02:24;;;;;;;8.80;4.65;;;;;;;18.70;65.21;101977.38;4957481;28;20058;-81
2021/06/26 07:04:50;;;;;;;6.43;4.10;;;;;;;18.72;71.52;101993.97;4945238;28;20397;-82
2021/06/26 07:07:16;;;;;;;5.43;4.82;;;;;;;18.82;70.86;101986.69;4957123;28;20039;-78
2021/06/26 07:09:42;;;;;;;8.02;4.68;;;;;;;19.00;65.00;101997.91;4922223;29;20047;-80
2021/06/26 07:12:08;;;;;;;4.95;4.47;;;;;;;19.37;61.52;101995.59;4966733;28;20046;-77
2021/06/26 07:14:34;;;;;;;6.95;4.70;;;;;;;19.63;59.57;101989.97;4982494;28;20026;-79
2021/06/26 07:17:00;;;;;;;5.07;4.30;;;;;;;19.73;62.62;101995.91;4959087;28;20118;-79
2021/06/26 07:19:25;;;;;;;8.65;4.35;;;;;;;19.81;59.94;101981.72;4927173;28;20397;-80
2021/06/26 07:21:51;;;;;;;6.95;4.15;;;;;;;19.90;59.06;101996.63;4942161;28;20123;-79
2021/06/26 07:24:17;;;;;;;8.05;4.05;;;;;;;19.86;57.63;101976.69;4958106;28;20033;-80
2021/06/26 07:26:42;;;;;;;5.60;4.07;;;;;;;19.88;59.32;101993.31;4965478;28;20058;-80
2021/06/26 07:29:08;;;;;;;4.18;3.50;;;;;;;19.86;60.02;101994.50;4924566;28;20038;-80
2021/06/26 07:31:33;;;;;;;3.47;3.10;;;;;;;19.90;65.42;101985.16;4949216;28;20480;-80
2021/06/26 07:33:59;;;;;;;3.72;3.35;;;;;;;20.10;61.67;101982.81;4943978;28;20039;-80
2021/06/26 07:36:25;;;;;;;3.40;3.10;;;;;;;20.23;53.89;101988.38;4970091;28;20050;-80
2021/06/26 07:38:50;;;;;;;5.18;3.08;;;;;;;20.32;57.68;101987.28;4951776;28;20034;-80
2021/06/26 07:41:16;;;;;;;6.00;2.80;;;;;;;20.49;55.24;101995.94;4960644;28;20122;-80
2021/06/26 07:43:42;;;;;;;4.78;3.28;;;;;;;20.74;50.62;101993.09;4961035;28;20046;-81
2021/06/26 07:46:07;;;;;;;4.60;3.33;;;;;;;20.84;48.82;101984.81;4961226;28;20461;-80
2021/06/26 07:48:33;;;;;;;5.13;2.92;;;;;;;20.87;54.05;101995.09;4945125;28;20042;-79
2021/06/26 07:50:59;;;;;;;4.78;3.13;;;;;;;20.87;54.29;101995.09;4928519;28;20501;-80
2021/06/26 07:53:25;;;;;;;3.10;2.80;;;;;;;20.81;56.38;101993.97;4944885;28;20035;-80
2021/06/26 07:55:53;;;;;;;4.50;3.13;;;;;;;20.85;56.03;101994.44;4927780;28;20043;-80
2021/06/26 07:58:20;;;;;;;4.70;3.10;;;;;;;21.00;55.24;101993.44;4961146;28;20022;-79
2021/06/26 08:00:47;;;;;;;6.38;3.40;;;;;;;21.26;55.93;101985.94;4961960;28;20045;-78
2021/06/26 08:03:14;;;;;;;4.15;3.28;;;;;;;21.41;53.43;101977.91;4953322;28;20118;-80
2021/06/26 08:05:40;;;;;;;4.70;3.17;;;;;;;21.62;52.80;101972.59;4925596;29;20039;-80
2021/06/26 08:08:05;;;;;;;7.53;5.00;;;;;;;21.87;51.92;101982.91;4944957;28;20045;-80
2021/06/26 08:10:31;;;;;;;10.90;5.43;;;;;;;22.09;53.14;101978.38;4961430;28;20053;-80
2021/06/26 08:12:56;;;;;;;11.15;7.63;;;;;;;22.35;50.53;101975.13;4945607;28;20134;-79
2021/06/26 08:15:22;;;;;;;10.73;6.53;;;;;;;22.16;51.86;101971.25;4949462;28;20046;-80
2021/06/26 08:17:47;;;;;;;7.00;5.40;;;;;;;22.54;53.94;101987.78;4938873;28;20783;-79
2021/06/26 08:20:13;;;;;;;9.90;8.18;;;;;;;22.81;50.63;101979.09;4945508;28;20783;-79
2021/06/26 08:22:40;;;;;;;16.65;10.38;;;;;;;22.94;49.54;101973.81;4960297;28;20034;-79
2021/06/26 08:25:06;;;;;;;13.25;9.48;;;;;;;22.88;51.54;101972.75;4971162;28;20035;-79
2021/06/26 08:27:31;;;;;;;10.88;8.80;;;;;;;22.74;50.81;101979.06;4957592;28;20118;-78
2021/06/26 08:29:57;;;;;;;10.65;8.40;;;;;;;22.75;50.05;101978.03;4963987;28;20523;-80
2021/06/26 08:32:23;;;;;;;13.48;10.55;;;;;;;23.02;49.91;101981.69;4979244;28;20042;-79
2021/06/26 08:34:49;;;;;;;16.67;10.80;;;;;;;23.19;48.87;101981.34;4961077;28;20050;-80
2021/06/26 08:37:15;;;;;;;15.50;9.82;;;;;;;23.08;50.01;101975.56;4967488;28;20031;-78
2021/06/26 08:39:41;;;;;;;9.75;8.68;;;;;;;22.90;54.07;101980.59;4942364;28;20050;-80
2021/06/26 08:42:07;;;;;;;12.68;8.68;;;;;;;22.77;54.92;101978.66;4942809;28;20062;-79
2021/06/26 08:44:33;;;;;;;12.82;9.85;;;;;;;22.67;53.93;101975.53;4943712;28;20086;-79
2021/06/26 08:46:59;;;;;;;14.32;9.02;;;;;;;22.74;52.48;101981.75;4943418;28;20126;-79
2021/06/26 08:49:25;;;;;;;10.98;8.60;;;;;;;22.89;52.71;101979.75;4960953;28;20035;-80
2021/06/26 08:51:52;;;;;;;12.98;9.93;;;;;;;23.02;50.33;101970.13;4921606;28;20047;-79
2021/06/26 08:54:18;;;;;;;15.82;11.65;;;;;;;22.95;49.82;101967.44;4943075;29;20433;-79
2021/06/26 08:56:45;;;;;;;14.98;10.60;;;;;;;22.85;50.02;101970.50;4925897;29;20137;-78
2021/06/26 08:59:12;;;;;;;13.48;10.27;;;;;;;22.89;52.17;101973.59;4928445;28;20045;-78
2021/06/26 09:01:40;;;;;;;12.95;9.38;;;;;;;22.94;53.20;101966.63;4944543;28;20661;-78
2021/06/26 09:04:15;;;;;;;11.65;8.52;;;;;;;22.94;55.49;101977.31;4979748;28;20047;-79
2021/06/26 09:06:54;;;;;;;10.23;7.75;;;;;;;23.07;57.29;101973.88;4931043;28;20048;-79
2021/06/26 09:09:36;;;;;;;10.43;9.13;;;;;;;22.88;49.89;101983.44;4944021;28;20089;-79
2021/06/26 09:12:03;;;;;;;15.32;10.07;;;;;;;22.74;49.60;101976.41;4929335;28;20518;-79
2021/06/26 09:14:29;;;;;;;15.43;10.13;;;;;;;22.73;50.65;101980.09;4929127;28;20069;-80
2021/06/26 09:16:55;;;;;;;13.35;8.30;;;;;;;22.79;52.35;101986.50;4951744;28;20039;-79
2021/06/26 09:19:21;;;;;;;11.50;9.48;;;;;;;22.90;52.14;101983.25;4958925;28;20050;-79
2021/06/26 09:22:03;;;;;;;12.30;9.10;;;;;;;22.98;49.64;101975.09;4940000;28;20542;-78
2021/06/26 09:24:41;;;;;;;9.88;8.10;;;;;;;22.98;50.62;101975.09;4950688;28;20094;-79
2021/06/26 09:27:08;;;;;;;11.98;9.60;;;;;;;22.92;50.17;101975.84;4957581;28;20444;-79
2021/06/26 09:29:34;;;;;;;11.23;8.23;;;;;;;22.83;51.66;101977.03;4959947;28;20027;-78
2021/06/26 09:32:03;;;;;;;11.25;8.48;;;;;;;22.90;50.82;101973.38;4958270;28;20057;-82
2021/06/26 09:34:40;;;;;;;9.00;8.10;;;;;;;22.80;54.18;101978.28;4960857;28;20548;-80
2021/06/26 09:37:12;;;;;;;12.43;8.20;;;;;;;22.71;56.83;101982.13;4945172;28;20592;-79
2021/06/26 09:39:42;;;;;;;9.85;7.95;;;;;;;22.65;52.88;101973.03;4963795;28;20499;-79
2021/06/26 09:42:20;;;;;;;12.30;7.18;;;;;;;22.66;57.01;101973.88;4941507;28;20046;-81
2021/06/26 09:44:54;;;;;;;12.40;9.32;;;;;;;22.60;51.66;101971.97;4924605;28;20046;-80
2021/06/26 09:47:33;;;;;;;9.52;7.40;;;;;;;22.60;58.29;101972.81;4936118;28;20031;-80
2021/06/26 09:50:17;;;;;;;10.77;8.02;;;;;;;22.58;54.80;101974.84;4942816;28;20042;-79
2021/06/26 09:52:48;;;;;;;8.02;6.93;;;;;;;22.68;56.73;101971.84;4954556;28;20106;-79
2021/06/26 09:55:17;;;;;;;12.30;7.35;;;;;;;22.65;58.43;101986.41;4967425;28;20057;-80
2021/06/26 09:57:43;;;;;;;12.68;9.15;;;;;;;22.73;51.98;101975.59;4958255;28;20046;-80
2021/06/26 10:00:09;;;;;;;11.93;8.15;;;;;;;22.97;50.87;101981.44;4942237;28;20473;-78
2021/06/26 10:02:35;;;;;;;16.90;7.90;;;;;;;23.32;51.11;101979.56;4966913;28;20105;-79
2021/06/26 10:05:02;;;;;;;32.05;11.40;;;;;;;23.79;47.77;101976.16;4959752;28;20067;-80
2021/06/26 10:07:33;;;;;;;13.13;8.43;;;;;;;23.81;48.08;101974.09;4941605;28;20046;-79
2021/06/26 10:09:59;;;;;;;11.18;8.88;;;;;;;23.86;48.03;101977.00;4940800;28;20046;-80
2021/06/26 10:12:26;;;;;;;7.47;6.72;;;;;;;23.89;54.15;101963.19;4957871;28;20126;-80
2021/06/26 10:14:53;;;;;;;8.88;6.82;;;;;;;23.81;56.83;101966.91;4958215;28;20125;-80
2021/06/26 10:17:21;;;;;;;14.95;9.52;;;;;;;23.57;48.87;101965.59;4965974;28;20035;-78
2021/06/26 10:19:47;;;;;;;11.88;8.52;;;;;;;23.41;52.67;101963.28;4924305;28;20101;-79
2021/06/26 10:22:13;;;;;;;12.00;9.52;;;;;;;23.86;50.51;101966.28;4955569;28;20113;-79
2021/06/26 10:24:41;;;;;;;15.05;9.73;;;;;;;24.27;48.57;101965.25;4951202;28;20587;-78
2021/06/26 10:27:19;;;;;;;13.68;10.90;;;;;;;24.79;45.99;101963.50;4955357;28;20058;-79
2021/06/26 10:29:45;;;;;;;13.00;10.20;;;;;;;25.49;44.60;101964.66;4935917;29;20063;-79
2021/06/26 10:32:14;;;;;;;12.75;8.90;;;;;;;25.67;45.64;101962.03;4939514;28;20058;-80
2021/06/26 10:34:41;;;;;;;17.23;11.02;;;;;;;25.73;42.91;101963.00;4936868;28;20088;-80
2021/06/26 10:37:14;;;;;;;12.32;9.00;;;;;;;25.95;47.79;101937.44;4926468;28;20073;-79
2021/06/26 10:39:40;;;;;;;16.70;9.50;;;;;;;26.01;41.48;101957.22;4966076;28;20648;-80
2021/06/26 10:42:12;;;;;;;13.50;9.30;;;;;;;26.09;42.22;101953.44;4942259;28;20069;-78
2021/06/26 10:44:51;;;;;;;11.55;8.30;;;;;;;26.26;42.98;101961.75;4959057;28;20034;-79
2021/06/26 10:47:32;;;;;;;10.50;7.68;;;;;;;26.52;41.81;101958.81;4958102;28;20259;-79
2021/06/26 10:50:17;;;;;;;11.27;7.75;;;;;;;26.75;42.29;101960.84;4972151;28;20034;-78
2021/06/26 10:52:52;;;;;;;8.55;7.03;;;;;;;26.13;42.76;101952.78;4956774;28;20536;-78
2021/06/26 10:55:35;;;;;;;7.53;6.53;;;;;;;25.81;45.40;101955.50;4955840;28;20039;-79
2021/06/26 10:58:05;;;;;;;7.05;6.03;;;;;;;25.27;49.35;101950.72;4940280;28;20041;-78
2021/06/26 11:00:34;;;;;;;13.48;10.18;;;;;;;24.58;44.02;101961.06;4959770;28;20026;-79
2021/06/26 11:03:01;;;;;;;13.35;9.73;;;;;;;24.13;44.60;101959.09;4969647;28;20492;-78
2021/06/26 11:05:31;;;;;;;11.75;8.40;;;;;;;23.82;50.20;101951.66;4954939;28;20035;-79
2021/06/26 11:07:57;;;;;;;8.98;7.10;;;;;;;23.54;52.72;101955.28;4942724;28;20039;-78
2021/06/26 11:10:24;;;;;;;7.55;6.78;;;;;;;23.27;53.45;101955.22;4941658;28;20049;-77
2021/06/26 11:12:49;;;;;;;10.32;6.63;;;;;;;23.20;55.45;101959.72;4920207;28;22401;-79
2021/06/26 11:15:27;;;;;;;12.07;8.05;;;;;;;23.31;52.76;101952.97;4971733;28;20122;-79